sensor_id;sensor_type;location;lat;lon;timestamp;P1;durP1;ratioP1;P2;durP2;ratioP2
6424;SDS011;12193;42.642;23.384;2023-04-03T00:02:02;2.87;;;1.90;;
6424;SDS011;12193;42.642;23.384;2023-04-03T00:04:31;3.57;;;2.40;;
6424;SDS011;12193;42.642;23.384;2023-04-03T03:08:42;3.23;;;2.63;;
6424;SDS011;12193;42.642;23.384;2023-04-03T03:11:11;4.30;;;2.70;;
6424;SDS011;12193;42.642;23.384;2023-04-03T03:13:40;3.80;;;2.40;;
6424;SDS011;12193;42.642;23.384;2023-04-03T03:16:09;2.83;;;2.20;;
6424;SDS011;12193;42.642;23.384;2023-04-03T03:18:37;6.63;;;2.70;;
6424;SDS011;12193;42.642;23.384;2023-04-03T03:21:06;5.57;;;2.63;;
6424;SDS011;12193;42.642;23.384;2023-04-03T03:23:35;5.53;;;2.97;;
6424;SDS011;12193;42.642;23.384;2023-04-03T03:26:07;3.37;;;2.43;;
6424;SDS011;12193;42.642;23.384;2023-04-03T03:28:36;3.20;;;2.30;;
6424;SDS011;12193;42.642;23.384;2023-04-03T03:31:06;3.10;;;2.30;;
6424;SDS011;12193;42.642;23.384;2023-04-03T03:33:36;4.47;;;2.50;;
6424;SDS011;12193;42.642;23.384;2023-04-03T03:36:04;2.57;;;2.00;;
6424;SDS011;12193;42.642;23.384;2023-04-03T03:38:33;4.63;;;2.00;;
6424;SDS011;12193;42.642;23.384;2023-04-03T03:41:02;3.10;;;2.00;;
6424;SDS011;12193;42.642;23.384;2023-04-03T03:43:33;3.83;;;2.47;;
6424;SDS011;12193;42.642;23.384;2023-04-03T03:46:02;4.37;;;2.10;;
6424;SDS011;12193;42.642;23.384;2023-04-03T03:48:31;2.70;;;2.30;;
6424;SDS011;12193;42.642;23.384;2023-04-03T03:51:00;2.27;;;1.90;;
6424;SDS011;12193;42.642;23.384;2023-04-03T03:53:29;4.07;;;2.57;;
6424;SDS011;12193;42.642;23.384;2023-04-03T03:55:58;2.90;;;2.10;;
6424;SDS011;12193;42.642;23.384;2023-04-03T03:58:26;3.13;;;2.43;;
6424;SDS011;12193;42.642;23.384;2023-04-03T04:00:58;3.80;;;2.50;;
6424;SDS011;12193;42.642;23.384;2023-04-03T04:03:28;3.23;;;2.53;;
6424;SDS011;12193;42.642;23.384;2023-04-03T04:05:57;6.13;;;2.40;;
6424;SDS011;12193;42.642;23.384;2023-04-03T04:08:26;3.20;;;2.23;;
6424;SDS011;12193;42.642;23.384;2023-04-03T04:10:55;2.87;;;1.90;;
6424;SDS011;12193;42.642;23.384;2023-04-03T04:13:24;3.50;;;2.03;;
6424;SDS011;12193;42.642;23.384;2023-04-03T04:15:53;3.47;;;2.37;;
6424;SDS011;12193;42.642;23.384;2023-04-03T04:18:24;3.77;;;2.83;;
6424;SDS011;12193;42.642;23.384;2023-04-03T04:20:52;3.50;;;2.63;;
6424;SDS011;12193;42.642;23.384;2023-04-03T04:23:21;4.60;;;3.03;;
6424;SDS011;12193;42.642;23.384;2023-04-03T04:25:51;3.90;;;3.07;;
6424;SDS011;12193;42.642;23.384;2023-04-03T04:28:19;7.50;;;2.93;;
6424;SDS011;12193;42.642;23.384;2023-04-03T04:30:48;5.57;;;3.20;;
6424;SDS011;12193;42.642;23.384;2023-04-03T04:33:17;4.77;;;3.30;;
6424;SDS011;12193;42.642;23.384;2023-04-03T04:35:49;6.80;;;3.50;;
6424;SDS011;12193;42.642;23.384;2023-04-03T04:38:18;4.73;;;3.10;;
6424;SDS011;12193;42.642;23.384;2023-04-03T04:40:47;5.57;;;3.20;;
6424;SDS011;12193;42.642;23.384;2023-04-03T04:43:16;4.20;;;3.03;;
6424;SDS011;12193;42.642;23.384;2023-04-03T04:45:45;6.93;;;3.10;;
6424;SDS011;12193;42.642;23.384;2023-04-03T04:48:14;5.37;;;2.93;;
6424;SDS011;12193;42.642;23.384;2023-04-03T04:50:43;5.47;;;3.07;;
6424;SDS011;12193;42.642;23.384;2023-04-03T04:53:14;4.90;;;3.10;;
6424;SDS011;12193;42.642;23.384;2023-04-03T04:55:42;4.97;;;3.10;;
6424;SDS011;12193;42.642;23.384;2023-04-03T04:58:12;7.97;;;3.43;;
6424;SDS011;12193;42.642;23.384;2023-04-03T05:00:41;5.03;;;2.90;;
6424;SDS011;12193;42.642;23.384;2023-04-03T05:03:09;4.13;;;3.00;;
6424;SDS011;12193;42.642;23.384;2023-04-03T05:05:38;7.40;;;2.93;;
6424;SDS011;12193;42.642;23.384;2023-04-03T05:08:07;2.93;;;2.30;;
6424;SDS011;12193;42.642;23.384;2023-04-03T05:10:39;5.50;;;2.57;;
6424;SDS011;12193;42.642;23.384;2023-04-03T05:13:09;5.40;;;2.70;;
6424;SDS011;12193;42.642;23.384;2023-04-03T05:15:38;4.17;;;2.40;;
6424;SDS011;12193;42.642;23.384;2023-04-03T05:18:07;3.37;;;2.47;;
6424;SDS011;12193;42.642;23.384;2023-04-03T05:20:35;5.23;;;2.70;;
6424;SDS011;12193;42.642;23.384;2023-04-03T05:23:05;4.80;;;2.97;;
6424;SDS011;12193;42.642;23.384;2023-04-03T05:25:34;7.17;;;2.90;;
6424;SDS011;12193;42.642;23.384;2023-04-03T05:28:05;5.47;;;3.37;;
6424;SDS011;12193;42.642;23.384;2023-04-03T05:30:34;6.20;;;3.13;;
6424;SDS011;12193;42.642;23.384;2023-04-03T05:33:03;5.40;;;3.20;;
6424;SDS011;12193;42.642;23.384;2023-04-03T05:35:32;4.70;;;3.30;;
6424;SDS011;12193;42.642;23.384;2023-04-03T05:38:01;8.03;;;3.90;;
6424;SDS011;12193;42.642;23.384;2023-04-03T05:40:29;8.10;;;3.60;;
6424;SDS011;12193;42.642;23.384;2023-04-03T05:42:58;8.73;;;3.93;;
6424;SDS011;12193;42.642;23.384;2023-04-03T05:45:29;5.87;;;3.90;;
6424;SDS011;12193;42.642;23.384;2023-04-03T05:47:58;10.93;;;3.90;;
6424;SDS011;12193;42.642;23.384;2023-04-03T05:50:27;7.33;;;4.90;;
6424;SDS011;12193;42.642;23.384;2023-04-03T05:52:57;12.90;;;4.30;;
6424;SDS011;12193;42.642;23.384;2023-04-03T05:55:26;10.03;;;4.33;;
6424;SDS011;12193;42.642;23.384;2023-04-03T05:57:55;13.03;;;4.60;;
6424;SDS011;12193;42.642;23.384;2023-04-03T06:00:24;12.10;;;4.17;;
6424;SDS011;12193;42.642;23.384;2023-04-03T06:02:55;13.47;;;4.77;;
6424;SDS011;12193;42.642;23.384;2023-04-03T06:05:24;10.70;;;4.53;;
6424;SDS011;12193;42.642;23.384;2023-04-03T06:07:53;10.23;;;4.30;;
6424;SDS011;12193;42.642;23.384;2023-04-03T06:10:23;14.77;;;4.63;;
6424;SDS011;12193;42.642;23.384;2023-04-03T06:12:51;12.53;;;4.43;;
6424;SDS011;12193;42.642;23.384;2023-04-03T06:15:20;13.60;;;4.27;;
6424;SDS011;12193;42.642;23.384;2023-04-03T06:17:49;11.23;;;4.10;;
6424;SDS011;12193;42.642;23.384;2023-04-03T06:20:20;13.17;;;4.23;;
6424;SDS011;12193;42.642;23.384;2023-04-03T06:22:49;7.43;;;4.20;;
6424;SDS011;12193;42.642;23.384;2023-04-03T06:25:18;10.53;;;4.87;;
6424;SDS011;12193;42.642;23.384;2023-04-03T06:27:47;6.97;;;4.53;;
6424;SDS011;12193;42.642;23.384;2023-04-03T06:30:16;7.90;;;4.57;;
6424;SDS011;12193;42.642;23.384;2023-04-03T06:32:45;10.07;;;4.63;;
6424;SDS011;12193;42.642;23.384;2023-04-03T06:35:13;10.20;;;4.33;;
6424;SDS011;12193;42.642;23.384;2023-04-03T06:37:45;8.73;;;4.20;;
6424;SDS011;12193;42.642;23.384;2023-04-03T06:40:15;8.67;;;4.90;;
6424;SDS011;12193;42.642;23.384;2023-04-03T06:42:47;9.97;;;4.93;;
6424;SDS011;12193;42.642;23.384;2023-04-03T06:45:16;10.17;;;5.10;;
6424;SDS011;12193;42.642;23.384;2023-04-03T06:47:45;6.83;;;4.00;;
6424;SDS011;12193;42.642;23.384;2023-04-03T06:50:14;8.17;;;4.17;;
6424;SDS011;12193;42.642;23.384;2023-04-03T06:52:46;6.20;;;3.90;;
6424;SDS011;12193;42.642;23.384;2023-04-03T06:55:14;8.43;;;4.10;;
6424;SDS011;12193;42.642;23.384;2023-04-03T06:57:43;8.47;;;4.40;;
6424;SDS011;12193;42.642;23.384;2023-04-03T07:00:13;10.03;;;5.17;;
6424;SDS011;12193;42.642;23.384;2023-04-03T07:02:42;7.23;;;4.87;;
6424;SDS011;12193;42.642;23.384;2023-04-03T07:05:12;12.63;;;5.27;;
6424;SDS011;12193;42.642;23.384;2023-04-03T07:07:40;9.03;;;5.53;;
6424;SDS011;12193;42.642;23.384;2023-04-03T07:10:12;10.60;;;5.10;;
6424;SDS011;12193;42.642;23.384;2023-04-03T07:12:41;7.73;;;5.03;;
6424;SDS011;12193;42.642;23.384;2023-04-03T07:15:10;10.20;;;5.70;;
6424;SDS011;12193;42.642;23.384;2023-04-03T07:17:40;8.90;;;5.63;;
6424;SDS011;12193;42.642;23.384;2023-04-03T07:20:10;8.53;;;5.53;;
6424;SDS011;12193;42.642;23.384;2023-04-03T07:22:39;13.37;;;5.90;;
6424;SDS011;12193;42.642;23.384;2023-04-03T07:25:07;8.80;;;5.13;;
6424;SDS011;12193;42.642;23.384;2023-04-03T07:27:39;13.50;;;6.33;;
6424;SDS011;12193;42.642;23.384;2023-04-03T07:30:08;12.33;;;6.60;;
6424;SDS011;12193;42.642;23.384;2023-04-03T07:32:39;8.37;;;6.43;;
6424;SDS011;12193;42.642;23.384;2023-04-03T07:35:08;14.90;;;6.70;;
6424;SDS011;12193;42.642;23.384;2023-04-03T07:37:37;13.67;;;7.40;;
6424;SDS011;12193;42.642;23.384;2023-04-03T07:40:07;14.90;;;6.77;;
6424;SDS011;12193;42.642;23.384;2023-04-03T07:42:35;13.63;;;7.47;;
6424;SDS011;12193;42.642;23.384;2023-04-03T07:45:07;20.83;;;8.53;;
6424;SDS011;12193;42.642;23.384;2023-04-03T07:47:36;21.03;;;10.70;;
6424;SDS011;12193;42.642;23.384;2023-04-03T07:50:06;23.60;;;11.20;;
6424;SDS011;12193;42.642;23.384;2023-04-03T07:52:35;22.37;;;11.57;;
6424;SDS011;12193;42.642;23.384;2023-04-03T07:55:04;26.10;;;13.10;;
6424;SDS011;12193;42.642;23.384;2023-04-03T07:57:33;25.23;;;14.17;;
6424;SDS011;12193;42.642;23.384;2023-04-03T08:00:03;32.57;;;14.73;;
6424;SDS011;12193;42.642;23.384;2023-04-03T08:02:34;34.10;;;15.73;;
6424;SDS011;12193;42.642;23.384;2023-04-03T08:05:03;29.87;;;14.93;;
6424;SDS011;12193;42.642;23.384;2023-04-03T08:07:32;26.00;;;14.43;;
6424;SDS011;12193;42.642;23.384;2023-04-03T08:10:01;31.67;;;16.00;;
6424;SDS011;12193;42.642;23.384;2023-04-03T08:12:31;24.93;;;14.73;;
6424;SDS011;12193;42.642;23.384;2023-04-03T08:15:00;28.40;;;14.47;;
6424;SDS011;12193;42.642;23.384;2023-04-03T08:17:29;34.20;;;14.73;;
6424;SDS011;12193;42.642;23.384;2023-04-03T08:20:01;30.23;;;16.00;;
6424;SDS011;12193;42.642;23.384;2023-04-03T08:22:30;27.10;;;15.40;;
6424;SDS011;12193;42.642;23.384;2023-04-03T08:24:58;31.07;;;14.77;;
6424;SDS011;12193;42.642;23.384;2023-04-03T08:27:28;29.47;;;14.33;;
6424;SDS011;12193;42.642;23.384;2023-04-03T08:29:57;26.50;;;13.70;;
6424;SDS011;12193;42.642;23.384;2023-04-03T08:32:25;27.83;;;13.97;;
6424;SDS011;12193;42.642;23.384;2023-04-03T08:34:54;28.87;;;14.20;;
6424;SDS011;12193;42.642;23.384;2023-04-03T08:37:26;28.63;;;13.70;;
6424;SDS011;12193;42.642;23.384;2023-04-03T08:39:55;22.70;;;12.43;;
6424;SDS011;12193;42.642;23.384;2023-04-03T08:42:30;23.67;;;12.43;;
6424;SDS011;12193;42.642;23.384;2023-04-03T08:45:05;26.53;;;12.70;;
6424;SDS011;12193;42.642;23.384;2023-04-03T08:47:38;25.67;;;12.67;;
6424;SDS011;12193;42.642;23.384;2023-04-03T08:50:08;21.90;;;11.90;;
6424;SDS011;12193;42.642;23.384;2023-04-03T08:52:42;21.87;;;11.80;;
6424;SDS011;12193;42.642;23.384;2023-04-03T08:55:15;20.63;;;11.77;;
6424;SDS011;12193;42.642;23.384;2023-04-03T08:57:46;18.37;;;10.83;;
6424;SDS011;12193;42.642;23.384;2023-04-03T09:00:17;19.80;;;11.23;;
6424;SDS011;12193;42.642;23.384;2023-04-03T09:02:47;17.60;;;10.50;;
6424;SDS011;12193;42.642;23.384;2023-04-03T09:05:17;22.80;;;10.33;;
6424;SDS011;12193;42.642;23.384;2023-04-03T09:07:49;14.70;;;9.17;;
6424;SDS011;12193;42.642;23.384;2023-04-03T09:10:23;14.37;;;8.87;;
6424;SDS011;12193;42.642;23.384;2023-04-03T09:12:54;14.40;;;9.03;;
6424;SDS011;12193;42.642;23.384;2023-04-03T09:15:24;19.63;;;9.70;;
6424;SDS011;12193;42.642;23.384;2023-04-03T09:17:58;14.87;;;9.10;;
6424;SDS011;12193;42.642;23.384;2023-04-03T09:20:30;14.83;;;9.00;;
6424;SDS011;12193;42.642;23.384;2023-04-03T09:23:04;15.83;;;8.40;;
6424;SDS011;12193;42.642;23.384;2023-04-03T09:25:38;14.23;;;7.60;;
6424;SDS011;12193;42.642;23.384;2023-04-03T09:28:07;13.63;;;8.33;;
6424;SDS011;12193;42.642;23.384;2023-04-03T09:30:36;12.13;;;7.43;;
6424;SDS011;12193;42.642;23.384;2023-04-03T09:33:05;19.50;;;7.90;;
6424;SDS011;12193;42.642;23.384;2023-04-03T09:35:35;11.83;;;7.00;;
6424;SDS011;12193;42.642;23.384;2023-04-03T09:38:17;13.60;;;6.87;;
6424;SDS011;12193;42.642;23.384;2023-04-03T09:40:47;10.43;;;7.03;;
6424;SDS011;12193;42.642;23.384;2023-04-03T09:43:26;8.03;;;4.90;;
6424;SDS011;12193;42.642;23.384;2023-04-03T09:45:56;9.80;;;5.90;;
6424;SDS011;12193;42.642;23.384;2023-04-03T09:48:49;10.20;;;5.37;;
6424;SDS011;12193;42.642;23.384;2023-04-03T09:51:18;10.47;;;5.80;;
6424;SDS011;12193;42.642;23.384;2023-04-03T09:53:50;11.43;;;5.63;;
6424;SDS011;12193;42.642;23.384;2023-04-03T09:56:19;10.57;;;5.90;;
6424;SDS011;12193;42.642;23.384;2023-04-03T09:58:49;13.20;;;7.00;;
6424;SDS011;12193;42.642;23.384;2023-04-03T10:01:28;16.57;;;9.67;;
6424;SDS011;12193;42.642;23.384;2023-04-03T10:04:05;11.80;;;7.50;;
6424;SDS011;12193;42.642;23.384;2023-04-03T10:06:34;6.73;;;4.50;;
6424;SDS011;12193;42.642;23.384;2023-04-03T10:09:14;5.10;;;3.90;;
6424;SDS011;12193;42.642;23.384;2023-04-03T10:11:58;8.27;;;4.70;;
6424;SDS011;12193;42.642;23.384;2023-04-03T10:14:27;7.80;;;4.70;;
6424;SDS011;12193;42.642;23.384;2023-04-03T10:16:58;6.23;;;4.33;;
6424;SDS011;12193;42.642;23.384;2023-04-03T10:19:39;13.63;;;4.80;;
6424;SDS011;12193;42.642;23.384;2023-04-03T10:22:12;8.03;;;4.47;;
6424;SDS011;12193;42.642;23.384;2023-04-03T10:24:48;6.13;;;3.80;;
6424;SDS011;12193;42.642;23.384;2023-04-03T10:27:20;6.03;;;3.90;;
6424;SDS011;12193;42.642;23.384;2023-04-03T10:29:54;4.13;;;2.80;;
6424;SDS011;12193;42.642;23.384;2023-04-03T10:32:27;5.23;;;3.30;;
6424;SDS011;12193;42.642;23.384;2023-04-03T10:35:01;4.47;;;3.03;;
6424;SDS011;12193;42.642;23.384;2023-04-03T10:37:33;4.60;;;2.83;;
6424;SDS011;12193;42.642;23.384;2023-04-03T10:40:10;6.90;;;3.07;;
6424;SDS011;12193;42.642;23.384;2023-04-03T10:42:43;5.50;;;3.20;;
6424;SDS011;12193;42.642;23.384;2023-04-03T10:45:18;4.53;;;2.63;;
6424;SDS011;12193;42.642;23.384;2023-04-03T10:47:51;5.10;;;2.57;;
6424;SDS011;12193;42.642;23.384;2023-04-03T10:50:26;5.30;;;2.87;;
6424;SDS011;12193;42.642;23.384;2023-04-03T10:53:00;4.70;;;2.77;;
6424;SDS011;12193;42.642;23.384;2023-04-03T10:55:41;4.37;;;2.80;;
6424;SDS011;12193;42.642;23.384;2023-04-03T10:58:13;4.20;;;3.27;;
6424;SDS011;12193;42.642;23.384;2023-04-03T11:00:47;3.53;;;2.80;;
6424;SDS011;12193;42.642;23.384;2023-04-03T11:03:21;4.27;;;2.70;;
6424;SDS011;12193;42.642;23.384;2023-04-03T11:05:52;4.63;;;2.67;;
6424;SDS011;12193;42.642;23.384;2023-04-03T11:08:24;3.30;;;2.50;;
6424;SDS011;12193;42.642;23.384;2023-04-03T11:10:59;3.57;;;2.73;;
6424;SDS011;12193;42.642;23.384;2023-04-03T11:13:30;4.23;;;3.50;;
6424;SDS011;12193;42.642;23.384;2023-04-03T11:16:01;4.90;;;3.30;;
6424;SDS011;12193;42.642;23.384;2023-04-03T11:18:32;4.80;;;3.03;;
6424;SDS011;12193;42.642;23.384;2023-04-03T11:21:03;5.33;;;3.33;;
6424;SDS011;12193;42.642;23.384;2023-04-03T11:23:33;5.60;;;3.10;;
6424;SDS011;12193;42.642;23.384;2023-04-03T11:26:10;4.90;;;3.37;;
6424;SDS011;12193;42.642;23.384;2023-04-03T11:28:40;4.87;;;3.10;;
6424;SDS011;12193;42.642;23.384;2023-04-03T11:31:15;6.20;;;3.73;;
6424;SDS011;12193;42.642;23.384;2023-04-03T11:33:50;5.20;;;4.00;;
6424;SDS011;12193;42.642;23.384;2023-04-03T11:36:22;5.20;;;3.60;;
6424;SDS011;12193;42.642;23.384;2023-04-03T11:38:53;4.93;;;3.60;;
6424;SDS011;12193;42.642;23.384;2023-04-03T11:41:27;4.17;;;3.40;;
6424;SDS011;12193;42.642;23.384;2023-04-03T11:43:58;4.67;;;3.70;;
6424;SDS011;12193;42.642;23.384;2023-04-03T11:49:19;4.47;;;4.00;;
6424;SDS011;12193;42.642;23.384;2023-04-03T11:52:09;5.13;;;4.17;;
6424;SDS011;12193;42.642;23.384;2023-04-03T11:54:45;4.93;;;3.60;;
6424;SDS011;12193;42.642;23.384;2023-04-03T12:00:01;6.83;;;4.17;;
6424;SDS011;12193;42.642;23.384;2023-04-03T12:02:51;4.60;;;3.70;;
6424;SDS011;12193;42.642;23.384;2023-04-03T12:05:27;7.23;;;4.07;;
6424;SDS011;12193;42.642;23.384;2023-04-03T12:10:40;6.40;;;4.13;;
6424;SDS011;12193;42.642;23.384;2023-04-03T12:13:13;6.47;;;3.50;;
6424;SDS011;12193;42.642;23.384;2023-04-03T12:15:50;5.10;;;3.77;;
6424;SDS011;12193;42.642;23.384;2023-04-03T12:21:16;5.07;;;4.13;;
6424;SDS011;12193;42.642;23.384;2023-04-03T12:24:03;6.53;;;4.53;;
6424;SDS011;12193;42.642;23.384;2023-04-03T12:26:36;5.07;;;4.13;;
6424;SDS011;12193;42.642;23.384;2023-04-03T12:29:13;6.00;;;4.50;;
6424;SDS011;12193;42.642;23.384;2023-04-03T12:31:46;6.00;;;4.07;;
6424;SDS011;12193;42.642;23.384;2023-04-03T12:34:21;6.63;;;4.10;;
6424;SDS011;12193;42.642;23.384;2023-04-03T12:36:57;5.13;;;3.97;;
6424;SDS011;12193;42.642;23.384;2023-04-03T12:39:42;6.97;;;4.87;;
6424;SDS011;12193;42.642;23.384;2023-04-03T12:42:17;8.67;;;5.00;;
6424;SDS011;12193;42.642;23.384;2023-04-03T12:44:52;5.63;;;4.60;;
6424;SDS011;12193;42.642;23.384;2023-04-03T12:47:28;7.97;;;5.10;;
6424;SDS011;12193;42.642;23.384;2023-04-03T12:49:58;8.17;;;5.20;;
6424;SDS011;12193;42.642;23.384;2023-04-03T12:52:31;7.97;;;5.47;;
6424;SDS011;12193;42.642;23.384;2023-04-03T12:55:01;6.83;;;4.53;;
6424;SDS011;12193;42.642;23.384;2023-04-03T12:57:31;6.13;;;4.40;;
6424;SDS011;12193;42.642;23.384;2023-04-03T13:00:00;4.77;;;3.87;;
6424;SDS011;12193;42.642;23.384;2023-04-03T13:02:49;7.50;;;4.90;;
6424;SDS011;12193;42.642;23.384;2023-04-03T13:05:18;7.33;;;4.80;;
6424;SDS011;12193;42.642;23.384;2023-04-03T13:07:48;5.90;;;4.57;;
6424;SDS011;12193;42.642;23.384;2023-04-03T13:10:17;7.80;;;5.50;;
6424;SDS011;12193;42.642;23.384;2023-04-03T13:12:48;9.03;;;5.57;;
6424;SDS011;12193;42.642;23.384;2023-04-03T13:15:18;8.77;;;5.27;;
6424;SDS011;12193;42.642;23.384;2023-04-03T13:17:50;6.60;;;4.90;;
6424;SDS011;12193;42.642;23.384;2023-04-03T13:20:21;8.83;;;5.53;;
6424;SDS011;12193;42.642;23.384;2023-04-03T13:22:52;8.77;;;6.00;;
6424;SDS011;12193;42.642;23.384;2023-04-03T13:25:23;8.87;;;5.80;;
6424;SDS011;12193;42.642;23.384;2023-04-03T13:27:52;8.93;;;6.17;;
6424;SDS011;12193;42.642;23.384;2023-04-03T13:30:23;9.23;;;6.03;;
6424;SDS011;12193;42.642;23.384;2023-04-03T13:32:56;8.60;;;6.00;;
6424;SDS011;12193;42.642;23.384;2023-04-03T13:35:30;10.07;;;6.40;;
6424;SDS011;12193;42.642;23.384;2023-04-03T13:38:01;9.57;;;6.73;;
6424;SDS011;12193;42.642;23.384;2023-04-03T13:40:30;8.93;;;6.40;;
6424;SDS011;12193;42.642;23.384;2023-04-03T13:43:04;12.00;;;7.60;;
6424;SDS011;12193;42.642;23.384;2023-04-03T13:45:33;11.63;;;7.10;;
6424;SDS011;12193;42.642;23.384;2023-04-03T13:48:15;11.87;;;6.87;;
6424;SDS011;12193;42.642;23.384;2023-04-03T13:53:40;10.83;;;6.23;;
6424;SDS011;12193;42.642;23.384;2023-04-03T13:56:16;11.77;;;6.97;;
6424;SDS011;12193;42.642;23.384;2023-04-03T13:58:53;8.70;;;6.37;;
6424;SDS011;12193;42.642;23.384;2023-04-03T14:01:22;9.10;;;6.83;;
6424;SDS011;12193;42.642;23.384;2023-04-03T14:03:56;11.40;;;7.10;;
6424;SDS011;12193;42.642;23.384;2023-04-03T14:06:25;12.20;;;7.23;;
6424;SDS011;12193;42.642;23.384;2023-04-03T14:08:54;12.33;;;7.63;;
6424;SDS011;12193;42.642;23.384;2023-04-03T14:11:24;11.73;;;7.60;;
6424;SDS011;12193;42.642;23.384;2023-04-03T14:13:54;9.53;;;7.07;;
6424;SDS011;12193;42.642;23.384;2023-04-03T14:16:25;11.70;;;7.53;;
6424;SDS011;12193;42.642;23.384;2023-04-03T14:18:57;9.10;;;6.87;;
6424;SDS011;12193;42.642;23.384;2023-04-03T14:21:27;11.83;;;7.87;;
6424;SDS011;12193;42.642;23.384;2023-04-03T14:23:56;13.63;;;8.17;;
6424;SDS011;12193;42.642;23.384;2023-04-03T14:26:24;11.03;;;7.57;;
6424;SDS011;12193;42.642;23.384;2023-04-03T14:28:55;13.67;;;8.73;;
6424;SDS011;12193;42.642;23.384;2023-04-03T14:31:25;15.90;;;9.40;;
6424;SDS011;12193;42.642;23.384;2023-04-03T14:33:53;13.90;;;8.37;;
6424;SDS011;12193;42.642;23.384;2023-04-03T14:36:25;14.77;;;9.07;;
6424;SDS011;12193;42.642;23.384;2023-04-03T14:38:56;13.57;;;8.33;;
6424;SDS011;12193;42.642;23.384;2023-04-03T14:41:26;12.43;;;8.20;;
6424;SDS011;12193;42.642;23.384;2023-04-03T14:43:55;11.07;;;7.40;;
6424;SDS011;12193;42.642;23.384;2023-04-03T14:46:26;13.30;;;7.73;;
6424;SDS011;12193;42.642;23.384;2023-04-03T14:48:55;14.70;;;7.60;;
6424;SDS011;12193;42.642;23.384;2023-04-03T14:51:27;9.63;;;7.70;;
6424;SDS011;12193;42.642;23.384;2023-04-03T14:53:57;11.57;;;6.93;;
6424;SDS011;12193;42.642;23.384;2023-04-03T14:56:28;10.30;;;7.07;;
6424;SDS011;12193;42.642;23.384;2023-04-03T14:58:58;9.50;;;7.07;;
6424;SDS011;12193;42.642;23.384;2023-04-03T15:01:27;10.80;;;7.47;;
6424;SDS011;12193;42.642;23.384;2023-04-03T15:03:56;10.87;;;6.37;;
6424;SDS011;12193;42.642;23.384;2023-04-03T15:06:27;10.37;;;5.20;;
6424;SDS011;12193;42.642;23.384;2023-04-03T15:08:56;7.50;;;6.10;;
6424;SDS011;12193;42.642;23.384;2023-04-03T15:11:25;9.00;;;6.40;;
6424;SDS011;12193;42.642;23.384;2023-04-03T15:13:54;11.97;;;6.57;;
6424;SDS011;12193;42.642;23.384;2023-04-03T15:16:23;6.77;;;4.60;;
6424;SDS011;12193;42.642;23.384;2023-04-03T15:18:52;8.13;;;5.50;;
6424;SDS011;12193;42.642;23.384;2023-04-03T15:21:21;9.43;;;6.03;;
6424;SDS011;12193;42.642;23.384;2023-04-03T15:23:52;7.77;;;5.77;;
6424;SDS011;12193;42.642;23.384;2023-04-03T15:26:21;8.13;;;5.80;;
6424;SDS011;12193;42.642;23.384;2023-04-03T15:28:50;9.03;;;6.23;;
6424;SDS011;12193;42.642;23.384;2023-04-03T15:31:19;8.90;;;6.07;;
6424;SDS011;12193;42.642;23.384;2023-04-03T15:33:47;8.13;;;6.00;;
6424;SDS011;12193;42.642;23.384;2023-04-03T15:36:17;8.60;;;6.70;;
6424;SDS011;12193;42.642;23.384;2023-04-03T15:38:45;6.93;;;5.63;;
6424;SDS011;12193;42.642;23.384;2023-04-03T15:41:16;7.10;;;5.30;;
6424;SDS011;12193;42.642;23.384;2023-04-03T15:43:46;7.13;;;4.60;;
6424;SDS011;12193;42.642;23.384;2023-04-03T15:46:15;7.73;;;5.80;;
6424;SDS011;12193;42.642;23.384;2023-04-03T15:48:44;7.37;;;5.60;;
6424;SDS011;12193;42.642;23.384;2023-04-03T15:51:13;6.27;;;4.87;;
6424;SDS011;12193;42.642;23.384;2023-04-03T15:53:42;8.07;;;5.70;;
6424;SDS011;12193;42.642;23.384;2023-04-03T15:56:10;7.83;;;5.67;;
6424;SDS011;12193;42.642;23.384;2023-04-03T15:58:42;6.63;;;5.40;;
6424;SDS011;12193;42.642;23.384;2023-04-03T16:01:11;8.20;;;6.17;;
6424;SDS011;12193;42.642;23.384;2023-04-03T16:03:40;9.17;;;7.17;;
6424;SDS011;12193;42.642;23.384;2023-04-03T16:06:10;10.47;;;7.10;;
6424;SDS011;12193;42.642;23.384;2023-04-03T16:08:39;10.90;;;7.83;;
6424;SDS011;12193;42.642;23.384;2023-04-03T16:11:08;11.40;;;7.80;;
6424;SDS011;12193;42.642;23.384;2023-04-03T16:13:37;10.77;;;7.37;;
6424;SDS011;12193;42.642;23.384;2023-04-03T16:16:08;10.80;;;7.40;;
6424;SDS011;12193;42.642;23.384;2023-04-03T16:18:38;10.17;;;6.70;;
6424;SDS011;12193;42.642;23.384;2023-04-03T16:21:07;9.43;;;7.13;;
6424;SDS011;12193;42.642;23.384;2023-04-03T16:23:36;10.53;;;7.03;;
6424;SDS011;12193;42.642;23.384;2023-04-03T16:26:05;10.47;;;7.30;;
6424;SDS011;12193;42.642;23.384;2023-04-03T16:28:34;10.23;;;6.50;;
6424;SDS011;12193;42.642;23.384;2023-04-03T16:31:02;10.40;;;6.30;;
6424;SDS011;12193;42.642;23.384;2023-04-03T16:33:34;9.17;;;6.77;;
6424;SDS011;12193;42.642;23.384;2023-04-03T16:36:03;7.67;;;5.10;;
6424;SDS011;12193;42.642;23.384;2023-04-03T16:38:32;8.40;;;5.80;;
6424;SDS011;12193;42.642;23.384;2023-04-03T16:41:01;8.10;;;5.00;;
6424;SDS011;12193;42.642;23.384;2023-04-03T16:43:30;6.87;;;4.83;;
6424;SDS011;12193;42.642;23.384;2023-04-03T16:45:59;7.30;;;5.23;;
6424;SDS011;12193;42.642;23.384;2023-04-03T16:48:28;8.90;;;5.83;;
6424;SDS011;12193;42.642;23.384;2023-04-03T16:50:59;10.57;;;5.63;;
6424;SDS011;12193;42.642;23.384;2023-04-03T16:53:28;8.67;;;6.23;;
6424;SDS011;12193;42.642;23.384;2023-04-03T16:55:57;9.97;;;7.20;;
6424;SDS011;12193;42.642;23.384;2023-04-03T16:58:26;10.60;;;7.37;;
6424;SDS011;12193;42.642;23.384;2023-04-03T17:00:55;11.20;;;8.17;;
6424;SDS011;12193;42.642;23.384;2023-04-03T17:03:24;7.93;;;5.87;;
6424;SDS011;12193;42.642;23.384;2023-04-03T17:05:53;9.00;;;6.90;;
6424;SDS011;12193;42.642;23.384;2023-04-03T17:08:24;8.77;;;6.23;;
6424;SDS011;12193;42.642;23.384;2023-04-03T17:10:53;6.60;;;5.30;;
6424;SDS011;12193;42.642;23.384;2023-04-03T17:13:22;8.77;;;6.17;;
6424;SDS011;12193;42.642;23.384;2023-04-03T17:15:56;9.33;;;5.60;;
6424;SDS011;12193;42.642;23.384;2023-04-03T17:18:25;10.53;;;6.43;;
6424;SDS011;12193;42.642;23.384;2023-04-03T17:20:55;10.67;;;6.07;;
6424;SDS011;12193;42.642;23.384;2023-04-03T17:23:26;10.23;;;5.77;;
6424;SDS011;12193;42.642;23.384;2023-04-03T17:25:56;9.83;;;6.30;;
6424;SDS011;12193;42.642;23.384;2023-04-03T17:28:25;12.23;;;7.37;;
6424;SDS011;12193;42.642;23.384;2023-04-03T17:30:54;10.97;;;7.30;;
6424;SDS011;12193;42.642;23.384;2023-04-03T17:33:23;11.33;;;8.10;;
6424;SDS011;12193;42.642;23.384;2023-04-03T17:35:54;9.83;;;6.90;;
6424;SDS011;12193;42.642;23.384;2023-04-03T17:38:26;10.50;;;6.80;;
6424;SDS011;12193;42.642;23.384;2023-04-03T17:40:55;7.70;;;5.63;;
6424;SDS011;12193;42.642;23.384;2023-04-03T17:43:24;9.20;;;6.13;;
6424;SDS011;12193;42.642;23.384;2023-04-03T17:45:53;8.50;;;5.77;;
6424;SDS011;12193;42.642;23.384;2023-04-03T17:48:24;11.10;;;6.43;;
6424;SDS011;12193;42.642;23.384;2023-04-03T17:50:52;7.73;;;5.73;;
6424;SDS011;12193;42.642;23.384;2023-04-03T17:53:21;8.83;;;5.90;;
6424;SDS011;12193;42.642;23.384;2023-04-03T17:55:54;8.73;;;5.83;;
6424;SDS011;12193;42.642;23.384;2023-04-03T17:58:23;9.97;;;6.50;;
6424;SDS011;12193;42.642;23.384;2023-04-03T18:00:52;9.30;;;5.80;;
6424;SDS011;12193;42.642;23.384;2023-04-03T18:03:22;7.27;;;4.90;;
6424;SDS011;12193;42.642;23.384;2023-04-03T18:05:50;8.17;;;5.47;;
6424;SDS011;12193;42.642;23.384;2023-04-03T18:08:19;6.40;;;4.27;;
6424;SDS011;12193;42.642;23.384;2023-04-03T18:10:48;5.50;;;3.10;;
6424;SDS011;12193;42.642;23.384;2023-04-03T18:13:20;4.70;;;3.53;;
6424;SDS011;12193;42.642;23.384;2023-04-03T18:15:49;5.40;;;3.60;;
6424;SDS011;12193;42.642;23.384;2023-04-03T18:18:18;5.07;;;3.80;;